Toowoomba, Queensland

1:48 PM AEST on June 30, 2015 (GMT +1000)
Newtown | | Change Station
CLOSE
Current Station
Personal Weather Station
Location: Toowoomba, QUEENSLAND
Elevation: 1919 ft
Nearby Weather Stations

Elev 1919 ft 27.54 °S, 151.94 °E | Updated 35 seconds ago

Clear
Clear
65.1 °F
Feels Like 65.1 °F
N
6.7
Wind Variable Wind from NE
Gusts 7.3 mph

Today
High -- | Low -- °F
--% Chance of Precip.
Yesterday
High -- | Low -- °F
Precip. -- in
6:43 AM 5:08 PM
Waxing Gibbous, 95% visible
Pressure 30.33 in
Visibility 6.2 miles
Clouds
Dew Point 54 °F
Humidity 68%
Rainfall in
Snow Depth Not available.
UV Not available.
Pollen Not available.
Air Quality Not available.
Flu Activity Not available.
METAR YBOK 300100Z AUTO 07013KT 9999 // NCD 19/09 Q1027

More Conditions Fewer Conditions

Pressure 30.33 in
Visibility 6.2 miles
Clouds
Dew Point 54 °F
Humidity 68%
Rainfall in
Snow Depth Not available.
UV Not available.
Pollen Not available.
Air Quality Not available.
Flu Activity Not available.
METAR YBOK 300100Z AUTO 07013KT 9999 // NCD 19/09 Q1027

More Conditions Fewer Conditions

10-Day Weather Forecast

×

Almanac

Astronomy

Jun. 30, 2015 Rise Set
Actual Time
Civil Twilight
Nautical Twilight
Astronomical Twilight
Moon
Length of Visible Light
Length of Day
Tomorrow will be .
, % of the Moon is Illuminated

Today's Extremes

Country Highs Country Lows

Community

WunderPhotos

Upload Photos

1,833,956 photos uploaded!

WunderBlogs® & News

Nearby

Air Quality

  Air Quality AQ Index Pollutant
Not available.

Snow Depth

Station Depth Elevation

Earthquake Activity

City Distance Mag. Time & Date
Minimum magnitude displayed is 2.5.

Coastal Water Temperatures

Place Temperature

Stations

Nearby Weather Stations

Station Location Temp. Windchill Dew Point Humidity Wind Precip. Elev Updated Type